createdAt,value
2019-05-14T00:01:13.597Z,7.19
2019-05-14T00:04:02.108Z,6.92
2019-05-14T00:06:51.867Z,7.08
2019-05-14T00:09:41.144Z,7.07
2019-05-14T00:12:27.969Z,6.91
2019-05-14T00:15:16.257Z,6.88
2019-05-14T00:18:03.950Z,6.90
2019-05-14T00:20:54.671Z,6.83
2019-05-14T00:23:44.664Z,6.86
2019-05-14T00:26:34.445Z,6.85
2019-05-14T00:29:22.204Z,6.69
2019-05-14T00:32:11.248Z,6.65
2019-05-14T00:34:58.639Z,6.76
2019-05-14T00:37:46.044Z,6.69
2019-05-14T00:40:33.479Z,6.73
2019-05-14T00:43:21.669Z,6.54
2019-05-14T00:46:09.175Z,6.71
2019-05-14T00:48:56.503Z,6.60
2019-05-14T00:51:44.016Z,6.63
2019-05-14T00:54:32.205Z,6.48
2019-05-14T00:57:21.150Z,6.53
2019-05-14T01:00:11.498Z,6.56
2019-05-14T01:02:58.125Z,6.33
2019-05-14T01:05:45.750Z,6.36
2019-05-14T01:08:33.048Z,6.40
2019-05-14T01:11:22.179Z,6.21
2019-05-14T01:14:12.028Z,6.28
2019-05-14T01:16:59.001Z,6.32
2019-05-14T01:19:46.606Z,6.25
2019-05-14T01:22:34.354Z,6.16
2019-05-14T01:25:23.677Z,6.20
2019-05-14T01:28:11.647Z,6.21
2019-05-14T01:31:01.016Z,6.11
2019-05-14T01:33:48.165Z,6.15
2019-05-14T01:36:35.941Z,6.14
2019-05-14T01:39:24.589Z,6.11
2019-05-14T01:42:12.710Z,6.06
2019-05-14T01:45:02.571Z,5.99
2019-05-14T01:47:51.923Z,5.88
2019-05-14T01:50:41.728Z,5.96
2019-05-14T01:53:31.210Z,5.97
2019-05-14T01:56:18.648Z,5.94
2019-05-14T01:59:06.348Z,5.92
2019-05-14T02:01:53.709Z,6.02
2019-05-14T02:04:42.685Z,6.02
2019-05-14T02:07:31.416Z,5.92
2019-05-14T02:10:18.880Z,5.78
2019-05-14T02:13:06.267Z,5.73
2019-05-14T02:15:53.873Z,5.81
2019-05-14T02:18:41.747Z,5.69
2019-05-14T02:21:31.702Z,5.78
2019-05-14T02:24:21.687Z,5.78
2019-05-14T02:27:12.275Z,5.68
2019-05-14T02:30:01.701Z,5.67
2019-05-14T02:32:49.945Z,5.63
2019-05-14T02:35:39.837Z,5.56
2019-05-14T02:38:29.959Z,5.58
2019-05-14T02:41:19.271Z,5.61
2019-05-14T02:44:05.073Z,5.63
2019-05-14T02:46:52.518Z,5.53
2019-05-14T02:49:40.320Z,5.53
2019-05-14T02:52:29.207Z,5.49
2019-05-14T02:55:19.432Z,5.40
2019-05-14T02:58:05.707Z,5.51
2019-05-14T03:00:53.748Z,5.45
2019-05-14T03:03:41.091Z,5.47
2019-05-14T03:06:29.304Z,5.41
2019-05-14T03:09:20.035Z,5.42
2019-05-14T03:12:05.922Z,5.41
2019-05-14T03:14:53.574Z,5.35
2019-05-14T03:17:41.266Z,5.38
2019-05-14T03:20:29.433Z,5.35
2019-05-14T03:23:19.606Z,5.24
2019-05-14T03:26:09.348Z,5.15
2019-05-14T03:28:55.580Z,5.17
2019-05-14T03:31:43.783Z,5.25
2019-05-14T03:34:32.969Z,5.19
2019-05-14T03:37:23.281Z,5.23
2019-05-14T03:40:09.647Z,5.16
2019-05-14T03:42:59.779Z,5.13
2019-05-14T03:45:49.271Z,5.12
2019-05-14T03:48:35.381Z,5.06
2019-05-14T03:51:22.777Z,5.12
2019-05-14T03:54:12.686Z,5.06
2019-05-14T03:57:00.397Z,5.08
2019-05-14T03:59:49.883Z,5.16
2019-05-14T04:02:39.129Z,5.15
2019-05-14T04:05:29.406Z,5.18
2019-05-14T04:08:21.270Z,5.11
2019-05-14T04:11:09.586Z,5.08
2019-05-14T04:14:00.166Z,5.00
2019-05-14T04:17:01.254Z,5.07
2019-05-14T04:19:39.754Z,5.03
2019-05-14T04:22:29.906Z,5.01
2019-05-14T04:25:19.503Z,5.04
2019-05-14T04:28:05.776Z,5.07
2019-05-14T04:30:59.376Z,5.08
2019-05-14T04:33:50.073Z,5.13
2019-05-14T04:36:35.613Z,5.08
2019-05-14T04:39:23.311Z,5.02
2019-05-14T04:42:11.049Z,5.04
2019-05-14T04:45:00.863Z,5.03
2019-05-14T04:47:49.794Z,5.07
2019-05-14T04:50:40.479Z,5.11
2019-05-14T04:53:30.321Z,5.15
2019-05-14T04:56:15.676Z,5.25
2019-05-14T04:59:03.176Z,5.69
2019-05-14T05:01:53.329Z,6.30
2019-05-14T05:04:41.492Z,7.04
2019-05-14T05:07:30.078Z,7.20
2019-05-14T05:10:19.327Z,7.92
2019-05-14T05:13:09.155Z,7.83
2019-05-14T05:15:59.113Z,7.87
2019-05-14T05:18:44.921Z,8.44
2019-05-14T05:21:32.508Z,8.51
2019-05-14T05:24:20.303Z,8.71
2019-05-14T05:27:09.344Z,9.58
2019-05-14T05:29:59.011Z,9.77
2019-05-14T05:32:46.417Z,9.52
2019-05-14T05:35:33.953Z,10.25
2019-05-14T05:38:21.621Z,10.77
2019-05-14T05:41:09.269Z,11.04
2019-05-14T05:43:58.883Z,11.63
2019-05-14T05:46:49.360Z,12.02
2019-05-14T05:49:38.175Z,12.36
2019-05-14T05:52:28.042Z,12.84
2019-05-14T05:55:15.321Z,12.85
2019-05-14T05:58:03.941Z,12.45
2019-05-14T06:00:51.777Z,12.79
2019-05-14T06:03:39.572Z,14.31
2019-05-14T06:06:28.367Z,13.89
2019-05-14T06:09:18.062Z,14.48
2019-05-14T06:12:05.124Z,14.43
2019-05-14T06:14:52.824Z,14.84
2019-05-14T06:17:40.465Z,12.56
2019-05-14T06:20:28.298Z,13.65
2019-05-14T06:23:15.847Z,13.44
2019-05-14T06:26:03.045Z,12.50
2019-05-14T06:28:50.284Z,13.71
2019-05-14T06:31:38.682Z,14.68
2019-05-14T06:34:29.020Z,12.58
2019-05-14T06:37:15.927Z,12.63
2019-05-14T06:40:04.331Z,14.99
2019-05-14T06:42:51.710Z,12.67
2019-05-14T06:45:39.550Z,13.15
2019-05-14T06:48:33.699Z,12.64
2019-05-14T06:51:16.335Z,13.46
2019-05-14T06:54:04.115Z,12.76
2019-05-14T06:56:51.978Z,12.00
2019-05-14T06:59:40.044Z,13.49
2019-05-14T07:02:28.483Z,11.93
2019-05-14T07:05:18.679Z,12.79
2019-05-14T07:08:05.382Z,12.92
2019-05-14T07:10:53.318Z,15.18
2019-05-14T07:13:40.462Z,16.03
2019-05-14T07:16:28.829Z,16.66
2019-05-14T07:19:19.048Z,16.14
2019-05-14T07:22:05.554Z,16.70
2019-05-14T07:24:53.491Z,16.01
2019-05-14T07:27:40.934Z,17.72
2019-05-14T07:30:29.132Z,16.38
2019-05-14T07:33:18.299Z,16.59
2019-05-14T07:36:05.739Z,17.10
2019-05-14T07:38:56.381Z,15.44
2019-05-14T07:41:42.153Z,14.52
2019-05-14T07:44:29.919Z,14.36
2019-05-14T07:47:18.701Z,15.75
2019-05-14T07:50:08.615Z,15.20
2019-05-14T07:52:55.549Z,14.22
2019-05-14T07:55:43.238Z,14.61
2019-05-14T07:58:31.116Z,13.09
2019-05-14T08:01:18.823Z,13.88
2019-05-14T08:04:10.229Z,14.57
2019-05-14T08:06:58.049Z,13.74
2019-05-14T08:09:48.000Z,13.34
2019-05-14T08:12:34.910Z,14.72
2019-05-14T08:15:22.672Z,15.36
2019-05-14T08:18:10.239Z,14.67
2019-05-14T08:20:59.238Z,13.90
2019-05-14T08:23:48.088Z,14.61
2019-05-14T08:26:38.037Z,14.17
2019-05-14T08:29:24.706Z,14.70
2019-05-14T08:32:12.058Z,14.58
2019-05-14T08:34:59.488Z,13.72
2019-05-14T08:37:49.032Z,14.04
2019-05-14T08:40:37.859Z,13.32
2019-05-14T08:43:24.708Z,12.78
2019-05-14T08:46:12.279Z,13.88
2019-05-14T08:48:59.589Z,12.73
2019-05-14T08:51:49.592Z,13.11
2019-05-14T08:54:38.869Z,13.03
2019-05-14T08:57:26.157Z,12.98
2019-05-14T09:00:18.291Z,13.06
2019-05-14T09:03:05.730Z,13.09
2019-05-14T09:05:53.283Z,12.53
2019-05-14T09:08:40.625Z,12.29
2019-05-14T09:11:35.104Z,11.72
2019-05-14T09:14:18.845Z,12.28
2019-05-14T09:17:06.309Z,12.18
2019-05-14T09:20:02.233Z,12.65
2019-05-14T09:22:42.869Z,12.42
2019-05-14T09:25:30.721Z,12.12
2019-05-14T09:28:18.962Z,12.35
2019-05-14T09:31:08.427Z,12.43
2019-05-14T09:33:55.466Z,12.47
2019-05-14T09:36:42.697Z,12.72
2019-05-14T09:39:33.197Z,12.41
2019-05-14T09:42:20.862Z,11.92
2019-05-14T09:45:11.063Z,12.39
2019-05-14T09:47:58.509Z,12.54
2019-05-14T09:50:48.987Z,12.45
2019-05-14T09:53:38.124Z,11.93
2019-05-14T09:56:24.641Z,11.88
2019-05-14T09:59:12.335Z,12.09
2019-05-14T10:02:00.208Z,11.89
2019-05-14T10:04:49.060Z,12.02
2019-05-14T10:07:39.215Z,12.41
2019-05-14T10:10:25.888Z,12.55
2019-05-14T10:13:13.330Z,12.38
2019-05-14T10:16:01.170Z,12.55
2019-05-14T10:18:52.384Z,12.82
2019-05-14T10:21:38.803Z,12.99
2019-05-14T10:24:28.964Z,13.04
2019-05-14T10:27:22.344Z,12.69
2019-05-14T10:30:10.572Z,13.04
2019-05-14T10:33:07.099Z,13.15
2019-05-14T10:35:48.468Z,13.46
2019-05-14T10:38:38.781Z,14.10
2019-05-14T10:41:28.811Z,13.25
2019-05-14T10:44:18.770Z,13.03
2019-05-14T10:47:05.517Z,13.26
2019-05-14T10:49:53.000Z,13.38
2019-05-14T10:52:40.590Z,13.38
2019-05-14T10:55:28.155Z,13.65
2019-05-14T10:58:19.219Z,13.71
2019-05-14T11:01:10.988Z,13.04
2019-05-14T11:03:55.575Z,13.18
2019-05-14T11:06:42.873Z,13.55
2019-05-14T11:09:30.243Z,13.48
2019-05-14T11:12:19.247Z,12.68
2019-05-14T11:15:07.325Z,12.59
2019-05-14T11:17:54.765Z,12.90
2019-05-14T11:20:42.512Z,12.88
2019-05-14T11:23:30.193Z,13.02
2019-05-14T11:26:20.514Z,13.07
2019-05-14T11:29:07.887Z,13.76
2019-05-14T11:31:55.558Z,14.26
2019-05-14T11:34:43.092Z,13.84
2019-05-14T11:37:30.868Z,13.87
2019-05-14T11:40:19.072Z,14.19
2019-05-14T11:43:08.396Z,14.03
2019-05-14T11:45:55.579Z,14.13
2019-05-14T11:48:43.264Z,14.41
2019-05-14T11:51:58.817Z,14.03
2019-05-14T11:54:23.011Z,14.60
2019-05-14T11:57:11.689Z,14.95
2019-05-14T11:59:58.586Z,15.05
2019-05-14T12:02:45.600Z,13.95
2019-05-14T12:05:33.078Z,13.60
2019-05-14T12:08:21.051Z,13.70
2019-05-14T12:11:08.864Z,13.07
2019-05-14T12:13:55.981Z,12.68
2019-05-14T12:16:43.459Z,13.07
2019-05-14T12:19:33.754Z,13.34
2019-05-14T12:22:22.090Z,13.45
2019-05-14T12:25:10.217Z,13.59
2019-05-14T12:27:58.932Z,13.53
2019-05-14T12:30:48.949Z,13.54
2019-05-14T12:33:35.995Z,13.81
2019-05-14T12:36:23.499Z,13.76
2019-05-14T12:39:10.736Z,13.04
2019-05-14T12:41:58.277Z,13.03
2019-05-14T12:44:45.874Z,13.05
2019-05-14T12:47:33.182Z,13.24
2019-05-14T12:50:21.951Z,13.48
2019-05-14T12:53:09.521Z,13.70
2019-05-14T12:55:56.841Z,13.32
2019-05-14T12:58:45.925Z,13.07
2019-05-14T13:01:33.535Z,13.08
2019-05-14T13:04:20.822Z,12.77
2019-05-14T13:07:09.224Z,13.20
2019-05-14T13:09:58.421Z,13.26
2019-05-14T13:12:48.166Z,12.82
2019-05-14T13:15:34.429Z,13.34
2019-05-14T13:18:21.818Z,13.52
2019-05-14T13:21:09.863Z,13.39
2019-05-14T13:23:57.169Z,13.20
2019-05-14T13:26:44.537Z,13.00
2019-05-14T13:29:32.031Z,13.40
2019-05-14T13:32:19.776Z,13.64
2019-05-14T13:35:12.902Z,13.76
2019-05-14T13:37:58.634Z,13.44
2019-05-14T13:40:48.885Z,12.90
2019-05-14T13:43:38.281Z,13.06
2019-05-14T13:46:25.138Z,12.96
2019-05-14T13:49:13.176Z,13.52
2019-05-14T13:52:00.783Z,13.43
2019-05-14T13:54:48.493Z,13.65
2019-05-14T13:57:35.846Z,13.70
2019-05-14T14:00:25.098Z,13.86
2019-05-14T14:03:13.029Z,13.47
2019-05-14T14:06:01.029Z,13.21
2019-05-14T14:08:48.975Z,13.42
2019-05-14T14:11:38.380Z,13.49
2019-05-14T14:14:25.816Z,13.49
2019-05-14T14:17:13.254Z,13.59
2019-05-14T14:20:02.009Z,13.59
2019-05-14T14:22:49.417Z,13.36
2019-05-14T14:25:39.276Z,13.30
2019-05-14T14:28:27.344Z,13.44
2019-05-14T14:31:14.907Z,13.78
2019-05-14T14:34:02.013Z,13.71
2019-05-14T14:36:50.459Z,13.88
2019-05-14T14:39:40.167Z,13.41
2019-05-14T14:42:30.435Z,13.85
2019-05-14T14:45:21.698Z,14.25
2019-05-14T14:48:11.855Z,14.17
2019-05-14T14:50:58.684Z,14.01
2019-05-14T14:53:57.767Z,13.90
2019-05-14T14:56:34.639Z,13.05
2019-05-14T14:59:22.420Z,12.58
2019-05-14T15:02:10.514Z,12.19
2019-05-14T15:04:59.630Z,11.97
2019-05-14T15:07:49.622Z,11.83
2019-05-14T15:10:39.272Z,11.99
2019-05-14T15:13:25.861Z,12.30
2019-05-14T15:16:14.151Z,12.46
2019-05-14T15:19:01.986Z,12.42
2019-05-14T15:21:49.437Z,12.56
2019-05-14T15:24:36.950Z,12.60
2019-05-14T15:27:25.377Z,12.61
2019-05-14T15:30:12.672Z,12.60
2019-05-14T15:33:00.157Z,12.85
2019-05-14T15:35:49.062Z,12.96
2019-05-14T15:38:39.366Z,12.92
2019-05-14T15:41:25.617Z,12.89
2019-05-14T15:44:13.274Z,13.00
2019-05-14T15:47:00.818Z,12.89
2019-05-14T15:49:48.969Z,13.04
2019-05-14T15:52:39.650Z,13.15
2019-05-14T15:55:28.879Z,13.12
2019-05-14T15:58:20.860Z,13.12
2019-05-14T16:01:05.482Z,13.18
2019-05-14T16:03:52.821Z,12.87
2019-05-14T16:06:40.278Z,12.82
2019-05-14T16:09:28.938Z,12.90
2019-05-14T16:12:19.480Z,13.02
2019-05-14T16:15:08.378Z,12.90
2019-05-14T16:18:07.921Z,12.81
2019-05-14T16:20:44.597Z,12.71
2019-05-14T16:23:31.646Z,12.74
2019-05-14T16:26:19.135Z,12.77
2019-05-14T16:29:08.992Z,12.55
2019-05-14T16:31:58.071Z,12.64
2019-05-14T16:34:44.733Z,12.61
2019-05-14T16:37:33.105Z,12.49
2019-05-14T16:40:20.977Z,12.31
2019-05-14T16:43:08.373Z,12.14
2019-05-14T16:45:55.674Z,12.10
2019-05-14T16:48:43.246Z,11.68
2019-05-14T16:51:30.544Z,11.65
2019-05-14T16:54:18.332Z,11.44
2019-05-14T16:57:10.693Z,11.47
2019-05-14T16:59:55.243Z,11.50
2019-05-14T17:02:42.887Z,11.58
2019-05-14T17:05:30.389Z,11.68
2019-05-14T17:08:18.984Z,11.75
2019-05-14T17:11:08.702Z,11.73
2019-05-14T17:13:55.354Z,11.79
2019-05-14T17:16:42.754Z,12.02
2019-05-14T17:19:30.362Z,12.04
2019-05-14T17:22:27.776Z,12.04
2019-05-14T17:25:09.368Z,11.94
2019-05-14T17:27:56.402Z,11.82
2019-05-14T17:30:44.152Z,11.86
2019-05-14T17:33:31.805Z,11.46
2019-05-14T17:36:19.505Z,11.50
2019-05-14T17:39:08.702Z,11.12
2019-05-14T17:41:58.772Z,11.12
2019-05-14T17:44:45.105Z,11.10
2019-05-14T17:47:32.672Z,11.03
2019-05-14T17:50:20.301Z,11.17
2019-05-14T17:53:09.718Z,11.20
2019-05-14T17:55:59.275Z,11.44
2019-05-14T17:58:48.950Z,11.63
2019-05-14T18:01:36.386Z,11.67
2019-05-14T18:04:23.829Z,11.82
2019-05-14T18:07:11.480Z,11.90
2019-05-14T18:09:59.005Z,11.80
2019-05-14T18:12:48.299Z,11.55
2019-05-14T18:15:36.241Z,11.36
2019-05-14T18:18:23.753Z,11.21
2019-05-14T18:21:11.299Z,11.13
2019-05-14T18:23:58.718Z,10.99
2019-05-14T18:26:47.976Z,10.89
2019-05-14T18:29:35.163Z,10.68
2019-05-14T18:32:23.045Z,10.61
2019-05-14T18:35:10.387Z,10.64
2019-05-14T18:37:57.702Z,10.47
2019-05-14T18:40:45.356Z,10.49
2019-05-14T18:43:32.743Z,10.48
2019-05-14T18:46:20.081Z,10.36
2019-05-14T18:49:08.758Z,10.38
2019-05-14T18:51:59.123Z,10.34
2019-05-14T18:54:48.159Z,10.36
2019-05-14T18:57:35.036Z,10.31
2019-05-14T19:00:22.661Z,10.19
2019-05-14T19:03:09.748Z,10.24
2019-05-14T19:05:58.667Z,10.18
2019-05-14T19:08:48.308Z,10.22
2019-05-14T19:11:35.317Z,10.16
2019-05-14T19:14:22.625Z,10.25
2019-05-14T19:17:10.417Z,10.24
2019-05-14T19:19:58.870Z,10.22
2019-05-14T19:22:48.909Z,10.27
2019-05-14T19:25:35.642Z,10.05
2019-05-14T19:28:23.100Z,9.88
2019-05-14T19:31:10.965Z,9.93
2019-05-14T19:33:58.308Z,10.04
2019-05-14T19:36:45.787Z,9.94
2019-05-14T19:39:33.308Z,9.86
2019-05-14T19:42:20.407Z,9.87
2019-05-14T19:45:16.664Z,9.87
2019-05-14T19:48:04.457Z,10.05
2019-05-14T19:50:52.152Z,9.84
2019-05-14T19:53:40.245Z,9.92
2019-05-14T19:56:29.313Z,10.05
2019-05-14T19:59:18.295Z,9.95
2019-05-14T20:02:06.107Z,10.08
2019-05-14T20:04:53.587Z,10.01
2019-05-14T20:07:41.528Z,10.01
2019-05-14T20:10:29.337Z,9.87
2019-05-14T20:13:19.319Z,9.75
2019-05-14T20:16:08.490Z,9.80
2019-05-14T20:18:55.300Z,9.66
2019-05-14T20:21:42.687Z,9.64
2019-05-14T20:24:30.040Z,9.54
2019-05-14T20:27:20.669Z,9.42
2019-05-14T20:30:09.297Z,9.27
2019-05-14T20:32:59.255Z,9.19
2019-05-14T20:35:48.566Z,9.15
2019-05-14T20:38:38.613Z,9.15
2019-05-14T20:41:25.404Z,9.14
2019-05-14T20:44:18.922Z,9.06
2019-05-14T20:47:09.084Z,8.89
2019-05-14T20:49:59.844Z,8.84
2019-05-14T20:52:48.504Z,8.78
2019-05-14T20:55:38.997Z,8.71
2019-05-14T20:58:28.932Z,8.64
2019-05-14T21:01:18.507Z,8.55
2019-05-14T21:04:09.050Z,8.50
2019-05-14T21:06:58.620Z,8.20
2019-05-14T21:09:46.211Z,8.23
2019-05-14T21:12:34.790Z,8.08
2019-05-14T21:15:24.994Z,8.09
2019-05-14T21:18:16.261Z,8.08
2019-05-14T21:21:05.154Z,8.00
2019-05-14T21:23:54.976Z,8.04
2019-05-14T21:26:43.832Z,7.94
2019-05-14T21:29:32.081Z,7.77
2019-05-14T21:32:21.301Z,7.60
2019-05-14T21:35:11.593Z,7.76
2019-05-14T21:38:01.121Z,7.80
2019-05-14T21:40:53.034Z,7.64
2019-05-14T21:43:49.183Z,7.66
2019-05-14T21:46:40.107Z,7.68
2019-05-14T21:49:30.705Z,7.49
2019-05-14T21:52:18.857Z,7.35
2019-05-14T21:55:07.555Z,7.15
2019-05-14T21:57:57.461Z,7.27
2019-05-14T22:00:48.666Z,7.50
2019-05-14T22:03:36.163Z,7.36
2019-05-14T22:06:23.580Z,7.45
2019-05-14T22:09:11.301Z,7.27
2019-05-14T22:11:58.981Z,7.07
2019-05-14T22:14:48.181Z,7.26
2019-05-14T22:17:38.245Z,7.08
2019-05-14T22:20:25.435Z,7.28
2019-05-14T22:23:12.539Z,7.28
2019-05-14T22:25:59.928Z,7.20
2019-05-14T22:28:47.989Z,7.23
2019-05-14T22:31:35.432Z,7.39
2019-05-14T22:34:23.172Z,7.20
2019-05-14T22:37:10.402Z,7.27
2019-05-14T22:39:59.047Z,7.19
2019-05-14T22:42:46.869Z,7.26
2019-05-14T22:45:34.254Z,7.06
2019-05-14T22:48:21.735Z,7.14
2019-05-14T22:51:09.231Z,7.01
2019-05-14T22:53:56.280Z,6.92
2019-05-14T22:56:43.663Z,7.03
2019-05-14T22:59:31.440Z,7.15
2019-05-14T23:02:19.511Z,7.01
2019-05-14T23:05:08.332Z,6.99
2019-05-14T23:07:58.318Z,6.98
2019-05-14T23:10:45.570Z,6.94
2019-05-14T23:13:33.779Z,6.79
2019-05-14T23:16:34.403Z,6.80
2019-05-14T23:19:12.964Z,6.72
2019-05-14T23:22:00.682Z,6.68
2019-05-14T23:24:48.226Z,6.68
2019-05-14T23:27:35.517Z,6.64
2019-05-14T23:30:31.969Z,6.79
2019-05-14T23:33:19.696Z,6.79
2019-05-14T23:36:08.811Z,6.65
2019-05-14T23:38:59.135Z,6.66
2019-05-14T23:41:46.089Z,6.64
2019-05-14T23:44:33.641Z,6.69
2019-05-14T23:47:21.309Z,6.72
2019-05-14T23:50:09.042Z,6.65
2019-05-14T23:52:56.794Z,6.71
2019-05-14T23:55:44.969Z,6.59
2019-05-14T23:58:31.979Z,6.42
